Time;durP1;ratioP1;P1;durP2;ratioP2;P2;SDS_P1;SDS_P2;PMS_P1;PMS_P2;Temp;Humidity;BMP_temperature;BMP_pressure;BME280_temperature;BME280_humidity;BME280_pressure;Samples;Min_cycle;Max_cycle;Signal;HPM_P1;HPM_P2
2022/03/01 00:02:25;;;;;;;20.60;11.63;;;;;;;;;;5034070;28;20326;-63
2022/03/01 00:04:53;;;;;;;20.50;10.70;;;;;;;;;;5045116;28;20230;-62
2022/03/01 00:07:20;;;;;;;39.73;19.23;;;;;;;;;;5033891;28;20206;-61
2022/03/01 00:09:48;;;;;;;22.03;11.70;;;;;;;;;;5025619;28;20260;-62
2022/03/01 00:12:15;;;;;;;27.07;14.23;;;;;;;;;;5021330;28;20668;-63
2022/03/01 00:14:43;;;;;;;25.13;14.43;;;;;;;;;;5023964;28;20614;-63
2022/03/01 00:17:10;;;;;;;21.90;10.63;;;;;;;;;;5017182;28;20215;-63
2022/03/01 00:19:37;;;;;;;22.27;11.43;;;;;;;;;;5027803;28;20218;-63
2022/03/01 00:22:05;;;;;;;18.50;9.63;;;;;;;;;;5017645;28;20238;-62
2022/03/01 00:24:33;;;;;;;29.73;16.13;;;;;;;;;;5009859;28;20805;-63
2022/03/01 00:27:00;;;;;;;26.57;13.70;;;;;;;;;;5024410;28;20734;-63
2022/03/01 00:29:27;;;;;;;23.63;13.30;;;;;;;;;;5028085;28;20696;-62
2022/03/01 00:31:55;;;;;;;29.37;15.70;;;;;;;;;;5020264;28;20213;-63
2022/03/01 00:34:22;;;;;;;23.67;12.50;;;;;;;;;;5018811;28;20681;-65
2022/03/01 00:36:50;;;;;;;16.83;9.43;;;;;;;;;;5025340;28;20226;-63
2022/03/01 00:39:17;;;;;;;17.37;9.97;;;;;;;;;;5019478;28;20260;-64
2022/03/01 00:41:44;;;;;;;13.83;8.13;;;;;;;;;;5036183;28;20226;-63
2022/03/01 00:44:12;;;;;;;13.77;8.23;;;;;;;;;;5031905;28;20236;-62
2022/03/01 00:46:42;;;;;;;10.10;7.07;;;;;;;;;;5017835;28;20234;-61
2022/03/01 00:49:10;;;;;;;15.00;8.60;;;;;;;;;;5026406;28;20929;-62
2022/03/01 00:51:37;;;;;;;10.97;7.93;;;;;;;;;;5017136;28;20634;-61
2022/03/01 00:54:04;;;;;;;14.00;8.10;;;;;;;;;;5034537;28;20211;-63
2022/03/01 00:56:33;;;;;;;12.67;7.63;;;;;;;;;;5020605;28;20217;-61
2022/03/01 00:59:01;;;;;;;11.33;7.43;;;;;;;;;;5018167;28;20701;-63
2022/03/01 01:01:28;;;;;;;13.63;8.37;;;;;;;;;;5028206;28;20245;-63
2022/03/01 01:03:56;;;;;;;10.87;7.47;;;;;;;;;;5024470;28;20209;-61
2022/03/01 01:06:24;;;;;;;13.60;7.77;;;;;;;;;;5007358;28;20232;-62
2022/03/01 01:08:52;;;;;;;13.13;7.50;;;;;;;;;;5016883;28;20198;-62
2022/03/01 01:11:19;;;;;;;12.83;7.73;;;;;;;;;;5023059;28;20259;-64
2022/03/01 01:13:46;;;;;;;13.13;7.83;;;;;;;;;;5009835;28;20281;-61
2022/03/01 01:16:14;;;;;;;11.47;7.60;;;;;;;;;;5017982;28;20230;-63
2022/03/01 01:18:43;;;;;;;13.27;7.40;;;;;;;;;;5019168;28;20275;-63
2022/03/01 01:21:11;;;;;;;12.13;7.83;;;;;;;;;;5011615;28;20726;-63
2022/03/01 01:23:39;;;;;;;14.53;8.20;;;;;;;;;;5013773;28;20202;-60
2022/03/01 01:26:06;;;;;;;14.13;7.73;;;;;;;;;;5041962;28;20229;-63
2022/03/01 01:28:34;;;;;;;14.13;8.57;;;;;;;;;;5019300;28;20256;-63
2022/03/01 01:31:01;;;;;;;15.17;8.20;;;;;;;;;;5025770;28;20210;-63
2022/03/01 01:33:29;;;;;;;13.33;8.03;;;;;;;;;;5027459;28;20855;-63
2022/03/01 01:35:56;;;;;;;10.63;7.60;;;;;;;;;;5026320;28;20564;-61
2022/03/01 01:38:24;;;;;;;13.03;7.57;;;;;;;;;;5016596;28;20677;-63
2022/03/01 01:40:51;;;;;;;13.30;7.63;;;;;;;;;;5025653;28;20214;-63
2022/03/01 01:43:18;;;;;;;14.63;8.37;;;;;;;;;;5043917;28;20265;-63
2022/03/01 01:45:46;;;;;;;13.17;8.13;;;;;;;;;;5046792;28;20220;-63
2022/03/01 01:48:13;;;;;;;32.13;14.20;;;;;;;;;;5018581;28;20217;-63
2022/03/01 01:50:41;;;;;;;30.07;14.50;;;;;;;;;;5016827;28;20680;-63
2022/03/01 01:53:08;;;;;;;28.20;13.10;;;;;;;;;;5029439;28;20222;-62
2022/03/01 01:55:36;;;;;;;36.47;16.93;;;;;;;;;;5029058;28;20589;-63
2022/03/01 01:58:03;;;;;;;33.87;16.20;;;;;;;;;;5021040;28;20200;-61
2022/03/01 02:00:30;;;;;;;33.10;17.20;;;;;;;;;;5025240;28;20239;-62
2022/03/01 02:02:58;;;;;;;51.97;22.27;;;;;;;;;;5033918;28;20279;-64
2022/03/01 02:05:27;;;;;;;35.07;17.17;;;;;;;;;;5032928;28;20228;-63
2022/03/01 02:07:55;;;;;;;37.80;18.53;;;;;;;;;;5020446;28;20634;-62
2022/03/01 02:10:26;;;;;;;28.87;16.23;;;;;;;;;;5026692;28;20292;-62
2022/03/01 02:12:53;;;;;;;23.40;12.80;;;;;;;;;;5014781;28;20736;-63
2022/03/01 02:15:21;;;;;;;20.83;10.37;;;;;;;;;;5018058;28;20322;-61
2022/03/01 02:17:48;;;;;;;21.63;11.50;;;;;;;;;;5015058;28;21659;-64
2022/03/01 02:20:15;;;;;;;21.30;12.07;;;;;;;;;;5019899;28;20267;-62
2022/03/01 02:22:43;;;;;;;17.40;9.57;;;;;;;;;;5019937;28;20904;-62
2022/03/01 02:25:11;;;;;;;18.37;9.93;;;;;;;;;;5020015;28;20774;-62
2022/03/01 02:27:39;;;;;;;18.07;9.30;;;;;;;;;;5021348;28;20981;-63
2022/03/01 02:30:07;;;;;;;13.90;8.00;;;;;;;;;;5020239;28;20251;-63
2022/03/01 02:32:35;;;;;;;14.03;8.80;;;;;;;;;;5026441;28;20208;-63
2022/03/01 02:35:03;;;;;;;14.03;8.63;;;;;;;;;;5016761;28;20746;-60
2022/03/01 02:37:33;;;;;;;14.57;9.20;;;;;;;;;;5023646;28;20212;-63
2022/03/01 02:40:00;;;;;;;14.33;8.37;;;;;;;;;;5021161;28;20868;-62
2022/03/01 02:42:30;;;;;;;13.33;8.43;;;;;;;;;;5023414;28;20235;-63
2022/03/01 02:44:58;;;;;;;13.20;8.40;;;;;;;;;;5024465;28;20203;-63
2022/03/01 02:47:25;;;;;;;14.70;8.63;;;;;;;;;;5021355;28;20208;-62
2022/03/01 02:49:53;;;;;;;14.73;8.93;;;;;;;;;;5021609;28;20291;-61
2022/03/01 02:52:20;;;;;;;15.53;8.43;;;;;;;;;;5022789;28;20586;-62
2022/03/01 02:54:48;;;;;;;15.20;9.00;;;;;;;;;;5032134;28;20218;-63
2022/03/01 02:57:15;;;;;;;16.20;10.10;;;;;;;;;;5030039;28;20618;-62
2022/03/01 02:59:45;;;;;;;15.00;9.17;;;;;;;;;;5021669;28;20217;-61
2022/03/01 03:02:12;;;;;;;15.10;9.27;;;;;;;;;;5027811;28;20316;-63
2022/03/01 03:04:41;;;;;;;15.73;9.57;;;;;;;;;;5022153;28;20214;-64
2022/03/01 03:07:08;;;;;;;16.57;9.97;;;;;;;;;;5020935;28;20216;-63
2022/03/01 03:09:35;;;;;;;18.47;10.23;;;;;;;;;;5010139;28;20280;-61
2022/03/01 03:12:03;;;;;;;17.43;9.67;;;;;;;;;;5023451;28;20235;-63
2022/03/01 03:14:30;;;;;;;14.87;9.27;;;;;;;;;;5025249;28;20211;-63
2022/03/01 03:16:58;;;;;;;14.87;9.33;;;;;;;;;;5020733;28;20227;-63
2022/03/01 03:19:25;;;;;;;16.57;9.13;;;;;;;;;;5026366;28;20221;-62
2022/03/01 03:21:53;;;;;;;15.40;9.13;;;;;;;;;;5025109;28;20857;-63
2022/03/01 03:24:20;;;;;;;14.67;8.90;;;;;;;;;;5034397;28;20596;-63
2022/03/01 03:26:49;;;;;;;14.30;9.23;;;;;;;;;;5026528;28;20226;-64
2022/03/01 03:29:18;;;;;;;15.90;9.20;;;;;;;;;;5032658;28;20263;-63
2022/03/01 03:31:48;;;;;;;22.03;11.70;;;;;;;;;;5024487;28;20208;-63
2022/03/01 03:34:15;;;;;;;14.50;9.13;;;;;;;;;;5020045;28;20199;-63
2022/03/01 03:36:44;;;;;;;16.30;9.03;;;;;;;;;;5022624;28;20226;-62
2022/03/01 03:39:13;;;;;;;14.83;9.07;;;;;;;;;;5015472;28;20260;-63
2022/03/01 03:41:40;;;;;;;13.30;9.07;;;;;;;;;;5019705;28;20231;-63
2022/03/01 03:44:08;;;;;;;16.00;9.20;;;;;;;;;;5029422;28;20229;-64
2022/03/01 03:46:36;;;;;;;16.70;10.37;;;;;;;;;;5018072;28;20230;-60
2022/03/01 03:49:04;;;;;;;17.93;10.20;;;;;;;;;;5020679;28;20209;-61
2022/03/01 03:51:31;;;;;;;19.40;10.27;;;;;;;;;;5017518;28;20688;-62
2022/03/01 03:53:59;;;;;;;23.03;11.63;;;;;;;;;;5024813;28;20305;-62
2022/03/01 03:56:26;;;;;;;16.50;9.27;;;;;;;;;;5021794;28;20248;-62
2022/03/01 03:58:57;;;;;;;19.17;10.00;;;;;;;;;;5018965;28;20246;-62
2022/03/01 04:01:25;;;;;;;18.37;9.83;;;;;;;;;;5026038;28;20215;-61
2022/03/01 04:03:53;;;;;;;17.33;10.73;;;;;;;;;;5020564;28;20791;-63
2022/03/01 04:06:20;;;;;;;18.20;10.33;;;;;;;;;;5020717;28;20316;-61
2022/03/01 04:08:48;;;;;;;15.77;10.20;;;;;;;;;;5025312;28;20198;-61
2022/03/01 04:11:15;;;;;;;22.23;11.47;;;;;;;;;;5032227;28;20308;-63
2022/03/01 04:13:42;;;;;;;16.53;10.33;;;;;;;;;;5021488;28;20218;-63
2022/03/01 04:16:10;;;;;;;16.20;10.07;;;;;;;;;;5034384;28;20258;-63
2022/03/01 04:18:38;;;;;;;20.93;11.03;;;;;;;;;;5031902;28;20212;-63
2022/03/01 04:21:05;;;;;;;21.83;13.33;;;;;;;;;;5017674;28;20243;-62
2022/03/01 04:23:33;;;;;;;22.83;14.20;;;;;;;;;;5020937;28;20226;-63
2022/03/01 04:26:03;;;;;;;26.90;15.80;;;;;;;;;;5024023;28;20325;-63
2022/03/01 04:28:31;;;;;;;21.20;11.43;;;;;;;;;;5012317;28;20275;-62
2022/03/01 04:30:58;;;;;;;16.13;10.10;;;;;;;;;;5015606;28;20272;-61
2022/03/01 04:33:25;;;;;;;17.90;9.97;;;;;;;;;;5019046;28;20214;-62
2022/03/01 04:35:53;;;;;;;18.90;10.17;;;;;;;;;;5016994;28;20226;-62
2022/03/01 04:38:20;;;;;;;15.97;9.87;;;;;;;;;;5022993;28;20212;-61
2022/03/01 04:40:48;;;;;;;15.80;9.53;;;;;;;;;;5019934;28;20209;-61
2022/03/01 04:43:15;;;;;;;18.07;8.97;;;;;;;;;;5026551;28;20234;-62
2022/03/01 04:45:42;;;;;;;16.27;8.93;;;;;;;;;;5021016;28;20751;-63
2022/03/01 04:48:13;;;;;;;14.13;8.80;;;;;;;;;;5029612;28;20214;-62
2022/03/01 04:50:42;;;;;;;24.03;10.33;;;;;;;;;;5018847;28;20203;-64
2022/03/01 04:53:11;;;;;;;24.00;12.20;;;;;;;;;;5018171;28;20695;-62
2022/03/01 04:55:38;;;;;;;26.47;12.47;;;;;;;;;;5021479;28;20637;-63
2022/03/01 04:58:05;;;;;;;27.53;13.67;;;;;;;;;;5018872;28;20202;-61
2022/03/01 05:00:33;;;;;;;33.97;12.73;;;;;;;;;;5015707;28;20207;-63
2022/03/01 05:03:00;;;;;;;25.47;12.63;;;;;;;;;;5022340;28;20325;-62
2022/03/01 05:05:30;;;;;;;27.47;12.10;;;;;;;;;;5013014;28;20226;-62
2022/03/01 05:07:58;;;;;;;22.00;11.70;;;;;;;;;;5023302;28;20218;-63
2022/03/01 05:10:25;;;;;;;22.10;11.17;;;;;;;;;;5017099;28;20215;-64
2022/03/01 05:12:58;;;;;;;18.13;10.37;;;;;;;;;;5009202;28;20205;-64
2022/03/01 05:15:27;;;;;;;16.23;9.20;;;;;;;;;;5010847;28;20747;-63
2022/03/01 05:17:55;;;;;;;21.67;10.70;;;;;;;;;;5016128;28;20209;-62
2022/03/01 05:20:25;;;;;;;19.67;10.70;;;;;;;;;;5015091;28;20203;-63
2022/03/01 05:22:53;;;;;;;25.03;13.10;;;;;;;;;;5022067;28;20229;-64
2022/03/01 05:25:21;;;;;;;15.03;9.90;;;;;;;;;;5025201;28;20225;-62
2022/03/01 05:27:50;;;;;;;16.10;9.60;;;;;;;;;;5029796;28;20217;-62
2022/03/01 05:30:18;;;;;;;19.37;10.70;;;;;;;;;;5020130;28;20855;-63
2022/03/01 05:32:47;;;;;;;25.97;11.57;;;;;;;;;;5021158;28;20294;-63
2022/03/01 05:35:15;;;;;;;24.87;11.90;;;;;;;;;;5028596;28;20228;-63
2022/03/01 05:37:43;;;;;;;26.23;12.37;;;;;;;;;;5031298;28;20194;-63
2022/03/01 05:40:14;;;;;;;28.13;13.60;;;;;;;;;;5024094;28;20299;-62
2022/03/01 05:42:42;;;;;;;30.90;14.97;;;;;;;;;;5032729;28;20225;-63
2022/03/01 05:45:11;;;;;;;44.67;19.80;;;;;;;;;;5031434;28;20254;-63
2022/03/01 05:47:43;;;;;;;49.37;19.93;;;;;;;;;;5025258;28;20199;-61
2022/03/01 05:50:11;;;;;;;36.10;17.30;;;;;;;;;;5016336;28;20630;-62
2022/03/01 05:52:44;;;;;;;36.33;16.23;;;;;;;;;;5022746;28;20233;-63
2022/03/01 05:55:12;;;;;;;27.50;15.13;;;;;;;;;;5029478;28;20734;-63
2022/03/01 05:57:40;;;;;;;26.57;13.57;;;;;;;;;;5029729;28;20235;-63
2022/03/01 06:00:09;;;;;;;25.57;12.67;;;;;;;;;;5031956;28;20210;-63
2022/03/01 06:02:37;;;;;;;21.10;11.30;;;;;;;;;;5031454;28;20221;-62
2022/03/01 06:05:05;;;;;;;19.03;10.73;;;;;;;;;;5036418;28;20226;-62
2022/03/01 06:07:32;;;;;;;20.57;10.23;;;;;;;;;;5033518;28;20210;-64
2022/03/01 06:09:59;;;;;;;19.43;10.90;;;;;;;;;;5033948;28;20680;-62
2022/03/01 06:12:27;;;;;;;23.07;10.97;;;;;;;;;;5031707;28;20206;-63
2022/03/01 06:14:54;;;;;;;20.97;11.10;;;;;;;;;;5021558;28;20210;-63
2022/03/01 06:17:21;;;;;;;19.07;10.60;;;;;;;;;;5027503;28;20677;-62
2022/03/01 06:19:49;;;;;;;23.23;11.77;;;;;;;;;;5028180;28;20712;-63
2022/03/01 06:22:16;;;;;;;22.63;11.63;;;;;;;;;;5032447;28;20210;-62
2022/03/01 06:24:43;;;;;;;31.50;16.67;;;;;;;;;;5029711;28;20229;-63
2022/03/01 06:27:11;;;;;;;41.17;18.67;;;;;;;;;;5032578;28;20198;-61
2022/03/01 06:29:38;;;;;;;40.67;21.47;;;;;;;;;;5033410;28;20645;-64
2022/03/01 06:32:06;;;;;;;38.53;18.63;;;;;;;;;;5034775;28;20198;-63
2022/03/01 06:34:34;;;;;;;31.27;14.97;;;;;;;;;;5040336;28;20204;-63
2022/03/01 06:37:22;;;;;;;28.73;15.20;;;;;;;;;;5029926;28;20218;-63
2022/03/01 06:39:50;;;;;;;29.67;16.77;;;;;;;;;;5027992;28;20210;-63
2022/03/01 06:42:18;;;;;;;28.63;16.80;;;;;;;;;;5050085;28;20221;-61
2022/03/01 06:44:45;;;;;;;30.47;16.07;;;;;;;;;;5047349;28;20226;-64
2022/03/01 06:47:13;;;;;;;24.77;15.23;;;;;;;;;;5033677;28;20210;-61
2022/03/01 06:49:41;;;;;;;23.27;13.53;;;;;;;;;;5043528;28;20206;-60
2022/03/01 06:52:08;;;;;;;25.67;14.40;;;;;;;;;;5037031;28;20225;-63
2022/03/01 06:54:35;;;;;;;28.07;14.13;;;;;;;;;;5033062;28;20206;-63
2022/03/01 06:57:03;;;;;;;24.77;12.70;;;;;;;;;;5032716;28;20238;-62
2022/03/01 06:59:31;;;;;;;21.17;13.10;;;;;;;;;;5030803;28;20202;-63
2022/03/01 07:01:58;;;;;;;20.33;11.20;;;;;;;;;;5032477;28;20198;-64
2022/03/01 07:04:31;;;;;;;20.17;12.37;;;;;;;;;;5030010;28;20230;-63
2022/03/01 07:06:59;;;;;;;17.47;10.60;;;;;;;;;;5029002;28;20970;-63
2022/03/01 07:09:26;;;;;;;14.13;8.97;;;;;;;;;;5035061;28;20289;-62
2022/03/01 07:11:53;;;;;;;15.03;9.17;;;;;;;;;;5034203;28;20218;-64
2022/03/01 07:14:23;;;;;;;16.80;9.33;;;;;;;;;;5031258;28;20206;-63
2022/03/01 07:16:51;;;;;;;17.67;9.93;;;;;;;;;;5023641;28;20360;-63
2022/03/01 07:19:19;;;;;;;18.03;10.53;;;;;;;;;;5027427;28;20221;-61
2022/03/01 07:21:46;;;;;;;19.50;10.23;;;;;;;;;;5029566;28;20726;-63
2022/03/01 07:24:14;;;;;;;18.63;10.20;;;;;;;;;;5031045;28;20288;-63
2022/03/01 07:26:42;;;;;;;15.27;9.17;;;;;;;;;;5031829;28;20581;-63
2022/03/01 07:29:09;;;;;;;17.63;9.40;;;;;;;;;;5029195;28;20297;-62
2022/03/01 07:31:37;;;;;;;14.97;9.27;;;;;;;;;;5030733;28;20205;-61
2022/03/01 07:34:04;;;;;;;18.20;10.50;;;;;;;;;;5036481;28;20345;-60
2022/03/01 07:36:31;;;;;;;15.57;9.30;;;;;;;;;;5031618;28;20596;-61
2022/03/01 07:38:59;;;;;;;15.63;9.00;;;;;;;;;;5030834;28;20202;-62
2022/03/01 07:41:26;;;;;;;15.13;9.03;;;;;;;;;;5032068;28;20209;-63
2022/03/01 07:43:54;;;;;;;14.80;9.60;;;;;;;;;;5029817;28;20906;-64
2022/03/01 07:46:21;;;;;;;15.77;9.33;;;;;;;;;;5033112;28;20225;-61
2022/03/01 07:48:49;;;;;;;14.13;8.17;;;;;;;;;;5032515;28;20286;-65
2022/03/01 07:51:16;;;;;;;13.93;8.13;;;;;;;;;;5028244;28;20198;-64
2022/03/01 07:53:44;;;;;;;13.97;8.70;;;;;;;;;;5022638;28;20211;-63
2022/03/01 07:56:11;;;;;;;13.07;8.60;;;;;;;;;;5034789;28;20484;-64
2022/03/01 07:58:38;;;;;;;16.10;8.97;;;;;;;;;;5031044;28;20226;-62
2022/03/01 08:01:06;;;;;;;14.53;8.77;;;;;;;;;;5028811;28;20197;-63
2022/03/01 08:03:34;;;;;;;12.20;8.17;;;;;;;;;;5027421;28;20224;-63
2022/03/01 08:06:02;;;;;;;13.03;8.10;;;;;;;;;;5034181;28;20230;-64
2022/03/01 08:08:29;;;;;;;11.37;8.33;;;;;;;;;;5019501;28;20306;-63
2022/03/01 08:10:57;;;;;;;16.17;8.70;;;;;;;;;;5026481;28;20209;-62
2022/03/01 08:13:40;;;;;;;11.47;8.00;;;;;;;;;;5030182;28;20213;-64
2022/03/01 08:16:08;;;;;;;11.53;7.27;;;;;;;;;;5031392;28;20228;-63
2022/03/01 08:18:35;;;;;;;11.73;8.13;;;;;;;;;;5034714;28;20213;-63
2022/03/01 08:21:02;;;;;;;14.80;7.73;;;;;;;;;;5044482;28;20209;-63
2022/03/01 08:23:30;;;;;;;15.33;7.90;;;;;;;;;;5029342;28;20280;-63
2022/03/01 08:25:57;;;;;;;12.67;8.00;;;;;;;;;;5025538;28;20231;-62
2022/03/01 08:28:26;;;;;;;11.37;7.63;;;;;;;;;;5031141;28;20235;-62
2022/03/01 08:30:54;;;;;;;11.07;8.00;;;;;;;;;;5020549;28;20209;-62
2022/03/01 08:33:24;;;;;;;15.83;7.80;;;;;;;;;;5031657;28;20287;-60
2022/03/01 08:35:55;;;;;;;12.40;7.50;;;;;;;;;;5031458;28;20222;-63
2022/03/01 08:38:24;;;;;;;12.63;7.57;;;;;;;;;;5025989;28;20234;-64
2022/03/01 08:40:52;;;;;;;12.83;7.53;;;;;;;;;;5031429;28;20218;-62
2022/03/01 08:43:21;;;;;;;13.40;7.83;;;;;;;;;;5044573;28;20207;-63
2022/03/01 08:45:50;;;;;;;12.20;7.23;;;;;;;;;;5022517;28;20752;-64
2022/03/01 08:48:18;;;;;;;12.77;8.10;;;;;;;;;;5028912;28;20211;-63
2022/03/01 08:50:46;;;;;;;12.27;7.50;;;;;;;;;;5030224;28;20216;-62
2022/03/01 08:53:17;;;;;;;19.37;9.90;;;;;;;;;;5050225;28;20722;-63
2022/03/01 08:55:44;;;;;;;12.43;8.30;;;;;;;;;;5032765;28;20222;-63
2022/03/01 08:58:12;;;;;;;14.53;8.07;;;;;;;;;;5032610;28;20693;-63
2022/03/01 09:00:40;;;;;;;14.17;7.27;;;;;;;;;;5031775;28;20216;-64
2022/03/01 09:03:08;;;;;;;10.87;7.80;;;;;;;;;;5027950;28;20206;-62
2022/03/01 09:05:35;;;;;;;10.50;7.60;;;;;;;;;;5035147;28;20233;-63
2022/03/01 09:08:03;;;;;;;14.57;7.97;;;;;;;;;;5035063;28;20742;-61
2022/03/01 09:10:31;;;;;;;12.07;7.53;;;;;;;;;;5029765;28;20207;-61
2022/03/01 09:12:59;;;;;;;10.73;6.90;;;;;;;;;;5027117;28;20199;-63
2022/03/01 09:15:31;;;;;;;11.50;7.20;;;;;;;;;;5018437;28;20287;-60
2022/03/01 09:18:00;;;;;;;12.47;7.30;;;;;;;;;;5029405;28;20211;-63
2022/03/01 09:20:28;;;;;;;12.23;6.83;;;;;;;;;;5034791;28;20288;-62
2022/03/01 09:22:55;;;;;;;10.67;7.47;;;;;;;;;;5030054;28;20299;-63
2022/03/01 09:25:23;;;;;;;12.67;7.83;;;;;;;;;;5032469;28;20683;-62
2022/03/01 09:27:51;;;;;;;11.73;6.97;;;;;;;;;;5025277;28;20213;-63
2022/03/01 09:30:18;;;;;;;11.70;7.53;;;;;;;;;;5039499;28;20829;-63
2022/03/01 09:32:46;;;;;;;8.57;6.63;;;;;;;;;;5035252;28;20194;-64
2022/03/01 09:35:14;;;;;;;8.77;6.73;;;;;;;;;;5034668;28;20606;-63
2022/03/01 09:37:42;;;;;;;10.67;6.30;;;;;;;;;;5025291;28;20613;-64
2022/03/01 09:40:11;;;;;;;10.00;6.57;;;;;;;;;;5027476;28;20201;-66
2022/03/01 09:42:42;;;;;;;9.77;6.50;;;;;;;;;;5028498;28;20905;-64
2022/03/01 09:45:11;;;;;;;9.13;6.40;;;;;;;;;;5028358;28;20624;-62
2022/03/01 09:47:38;;;;;;;11.97;6.80;;;;;;;;;;5027363;28;20557;-62
2022/03/01 09:50:07;;;;;;;9.40;6.63;;;;;;;;;;5023362;28;20210;-64
2022/03/01 09:52:35;;;;;;;9.37;6.00;;;;;;;;;;5031679;28;20213;-61
2022/03/01 09:55:03;;;;;;;9.00;6.17;;;;;;;;;;5031168;28;20200;-62
2022/03/01 09:57:30;;;;;;;9.20;6.50;;;;;;;;;;5028914;28;20216;-63
2022/03/01 09:59:58;;;;;;;8.40;6.17;;;;;;;;;;5027821;28;20661;-61
2022/03/01 10:02:35;;;;;;;8.27;5.97;;;;;;;;;;5028576;28;20242;-63
2022/03/01 10:05:03;;;;;;;10.03;5.53;;;;;;;;;;5037262;28;20236;-62
2022/03/01 10:07:31;;;;;;;8.93;6.53;;;;;;;;;;5045617;28;20254;-63
2022/03/01 10:10:09;;;;;;;12.33;6.40;;;;;;;;;;5029378;28;20213;-63
2022/03/01 10:12:39;;;;;;;9.10;6.23;;;;;;;;;;5025790;28;20201;-63
2022/03/01 10:15:07;;;;;;;8.60;6.17;;;;;;;;;;5023643;28;20235;-61
2022/03/01 10:17:40;;;;;;;8.80;5.67;;;;;;;;;;5028016;28;20693;-63
2022/03/01 10:20:09;;;;;;;9.60;6.17;;;;;;;;;;5035611;28;20712;-63
2022/03/01 10:22:56;;;;;;;7.93;6.40;;;;;;;;;;5016637;28;20664;-62
2022/03/01 10:25:25;;;;;;;7.47;6.00;;;;;;;;;;5031359;28;20668;-61
2022/03/01 10:27:53;;;;;;;11.13;8.07;;;;;;;;;;5030273;28;20225;-63
2022/03/01 10:30:32;;;;;;;8.93;6.23;;;;;;;;;;5028999;28;20210;-64
2022/03/01 10:33:28;;;;;;;10.80;7.30;;;;;;;;;;5029537;28;20762;-63
2022/03/01 10:35:59;;;;;;;10.73;6.40;;;;;;;;;;5019034;28;20234;-63
2022/03/01 10:38:27;;;;;;;9.07;6.43;;;;;;;;;;5029928;28;20224;-62
2022/03/01 10:41:02;;;;;;;7.87;6.27;;;;;;;;;;5035883;28;20207;-63
2022/03/01 10:43:30;;;;;;;10.63;7.33;;;;;;;;;;5028284;28;20213;-63
2022/03/01 10:45:57;;;;;;;7.90;6.13;;;;;;;;;;5029578;28;20230;-61
2022/03/01 10:48:27;;;;;;;9.37;5.67;;;;;;;;;;5033480;28;20306;-61
2022/03/01 10:51:02;;;;;;;8.10;5.67;;;;;;;;;;5035775;28;20301;-63
2022/03/01 10:53:34;;;;;;;9.27;6.60;;;;;;;;;;5025131;28;20221;-63
2022/03/01 10:56:03;;;;;;;9.57;6.83;;;;;;;;;;5030621;28;20704;-63
2022/03/01 10:58:31;;;;;;;8.77;6.17;;;;;;;;;;5031357;28;20207;-62
2022/03/01 11:00:59;;;;;;;8.77;6.07;;;;;;;;;;5034906;28;20207;-63
2022/03/01 11:03:27;;;;;;;9.37;5.70;;;;;;;;;;5033930;28;20214;-63
2022/03/01 11:05:55;;;;;;;9.07;5.73;;;;;;;;;;5033590;28;20225;-64
2022/03/01 11:08:32;;;;;;;7.97;5.60;;;;;;;;;;5023735;28;20233;-63
2022/03/01 11:11:01;;;;;;;8.77;5.97;;;;;;;;;;5024149;28;20234;-64
2022/03/01 11:13:28;;;;;;;8.53;6.03;;;;;;;;;;5018338;28;20203;-65
2022/03/01 11:16:08;;;;;;;8.10;6.17;;;;;;;;;;5038615;28;20233;-64
2022/03/01 11:18:55;;;;;;;7.87;6.00;;;;;;;;;;5027007;28;20217;-63
2022/03/01 11:21:24;;;;;;;9.90;6.33;;;;;;;;;;5015617;28;20256;-63
2022/03/01 11:23:53;;;;;;;8.83;6.20;;;;;;;;;;5025452;28;20202;-63
2022/03/01 11:26:21;;;;;;;10.87;6.40;;;;;;;;;;5027649;28;20229;-64
2022/03/01 11:28:56;;;;;;;11.60;6.63;;;;;;;;;;5033511;28;20210;-63
2022/03/01 11:31:28;;;;;;;7.60;6.23;;;;;;;;;;5040213;28;20258;-62
2022/03/01 11:33:57;;;;;;;11.60;6.73;;;;;;;;;;5033272;28;20201;-64
2022/03/01 11:36:26;;;;;;;8.10;6.40;;;;;;;;;;5022015;28;20326;-62
2022/03/01 11:38:53;;;;;;;8.73;6.03;;;;;;;;;;5034701;28;20649;-63
2022/03/01 11:41:22;;;;;;;8.33;6.07;;;;;;;;;;5026128;28;20202;-61
2022/03/01 11:43:55;;;;;;;8.13;6.10;;;;;;;;;;5041974;28;20210;-62
2022/03/01 11:46:27;;;;;;;8.83;6.30;;;;;;;;;;5027187;28;20225;-63
2022/03/01 11:48:56;;;;;;;7.50;6.03;;;;;;;;;;5032811;28;20214;-64
2022/03/01 11:51:34;;;;;;;9.30;6.13;;;;;;;;;;5010700;28;20256;-65
2022/03/01 11:54:06;;;;;;;10.80;7.20;;;;;;;;;;5036536;28;20198;-64
2022/03/01 11:56:34;;;;;;;8.27;6.60;;;;;;;;;;5035840;28;20236;-65
2022/03/01 11:59:09;;;;;;;8.40;6.53;;;;;;;;;;5031873;28;20202;-64
2022/03/01 12:01:37;;;;;;;9.63;6.43;;;;;;;;;;5032968;28;20201;-63
2022/03/01 12:04:06;;;;;;;8.43;6.07;;;;;;;;;;5032891;28;20211;-63
2022/03/01 12:06:35;;;;;;;7.47;6.17;;;;;;;;;;5029007;28;20579;-64
2022/03/01 12:09:07;;;;;;;10.10;6.67;;;;;;;;;;5031292;28;20673;-64
2022/03/01 12:11:40;;;;;;;10.33;6.83;;;;;;;;;;5021426;28;20201;-63
2022/03/01 12:14:09;;;;;;;8.77;6.50;;;;;;;;;;5026023;28;20220;-64
2022/03/01 12:16:36;;;;;;;8.17;6.30;;;;;;;;;;5024823;28;20218;-64
2022/03/01 12:19:18;;;;;;;8.70;6.70;;;;;;;;;;5032450;28;20628;-65
2022/03/01 12:21:50;;;;;;;9.17;6.50;;;;;;;;;;5027679;28;20260;-63
2022/03/01 12:24:17;;;;;;;9.03;6.37;;;;;;;;;;5025539;28;20717;-64
2022/03/01 12:26:50;;;;;;;10.70;6.20;;;;;;;;;;5028432;28;20715;-64
2022/03/01 12:29:19;;;;;;;8.00;5.73;;;;;;;;;;5024243;28;20248;-64
2022/03/01 12:31:56;;;;;;;7.73;6.40;;;;;;;;;;5032591;28;20626;-63
2022/03/01 12:34:26;;;;;;;8.03;6.33;;;;;;;;;;5024673;28;20198;-64
2022/03/01 12:36:55;;;;;;;8.87;5.83;;;;;;;;;;5046612;28;20222;-64
2022/03/01 12:39:24;;;;;;;8.53;6.30;;;;;;;;;;5028157;28;20210;-64
2022/03/01 12:41:52;;;;;;;7.50;5.73;;;;;;;;;;5036123;28;20548;-64
2022/03/01 12:44:22;;;;;;;8.50;5.73;;;;;;;;;;5032941;28;20252;-64
2022/03/01 12:46:50;;;;;;;6.87;5.60;;;;;;;;;;5037860;28;20214;-64
2022/03/01 12:49:18;;;;;;;7.67;5.67;;;;;;;;;;5032024;28;20260;-64
2022/03/01 12:51:46;;;;;;;9.93;5.97;;;;;;;;;;5029360;28;20255;-64
2022/03/01 12:54:15;;;;;;;6.13;5.07;;;;;;;;;;5024462;28;20209;-63
2022/03/01 12:56:48;;;;;;;7.27;5.73;;;;;;;;;;5030265;28;20222;-63
2022/03/01 12:59:17;;;;;;;6.83;5.30;;;;;;;;;;5039140;28;20197;-63
2022/03/01 13:01:46;;;;;;;7.87;5.40;;;;;;;;;;5034944;28;20536;-64
2022/03/01 13:04:15;;;;;;;7.43;5.67;;;;;;;;;;5024563;28;20207;-64
2022/03/01 13:06:42;;;;;;;7.93;5.43;;;;;;;;;;5029953;28;20766;-65
2022/03/01 13:09:10;;;;;;;7.03;5.33;;;;;;;;;;5020831;28;20277;-63
2022/03/01 13:11:38;;;;;;;7.73;5.60;;;;;;;;;;5028514;28;20206;-63
2022/03/01 13:14:07;;;;;;;6.73;5.27;;;;;;;;;;5027879;28;20206;-64
2022/03/01 13:16:35;;;;;;;7.57;5.60;;;;;;;;;;5028522;28;20233;-63
2022/03/01 13:19:04;;;;;;;6.43;5.40;;;;;;;;;;5029537;28;20301;-64
2022/03/01 13:21:33;;;;;;;8.03;5.83;;;;;;;;;;5051892;28;20206;-63
2022/03/01 13:24:03;;;;;;;7.87;5.77;;;;;;;;;;5024569;28;20251;-64
2022/03/01 13:26:32;;;;;;;7.57;5.97;;;;;;;;;;5032622;28;20242;-64
2022/03/01 13:29:07;;;;;;;6.20;5.47;;;;;;;;;;5030820;28;20210;-64
2022/03/01 13:31:35;;;;;;;6.70;5.83;;;;;;;;;;5028807;28;20209;-64
2022/03/01 13:34:02;;;;;;;8.63;6.10;;;;;;;;;;5026991;28;20203;-62
2022/03/01 13:36:31;;;;;;;7.37;5.93;;;;;;;;;;5021255;28;20226;-64
2022/03/01 13:39:06;;;;;;;6.73;5.50;;;;;;;;;;5026838;28;20202;-63
2022/03/01 13:41:35;;;;;;;6.00;5.40;;;;;;;;;;5030214;28;20201;-63
2022/03/01 13:44:10;;;;;;;8.07;6.07;;;;;;;;;;5027909;28;20203;-64
2022/03/01 13:46:37;;;;;;;6.93;6.00;;;;;;;;;;5033016;28;20742;-64
2022/03/01 13:49:08;;;;;;;8.77;6.17;;;;;;;;;;5034267;28;20233;-64
2022/03/01 13:51:36;;;;;;;6.43;5.60;;;;;;;;;;5029975;28;20214;-63
2022/03/01 13:54:07;;;;;;;6.17;5.10;;;;;;;;;;5024933;28;20199;-64
2022/03/01 13:56:34;;;;;;;6.77;5.80;;;;;;;;;;5025983;28;20229;-64
2022/03/01 13:59:03;;;;;;;6.20;5.10;;;;;;;;;;5030680;28;20197;-63
2022/03/01 14:01:31;;;;;;;7.47;5.50;;;;;;;;;;5039375;28;20210;-63
2022/03/01 14:04:05;;;;;;;7.47;5.67;;;;;;;;;;5030110;28;20214;-64
2022/03/01 14:06:33;;;;;;;7.23;5.20;;;;;;;;;;5031194;28;20668;-64
2022/03/01 14:09:01;;;;;;;7.27;5.80;;;;;;;;;;5027889;28;20206;-64
2022/03/01 14:11:28;;;;;;;7.13;5.33;;;;;;;;;;5026734;28;20252;-64
2022/03/01 14:13:56;;;;;;;5.97;5.37;;;;;;;;;;5030532;28;20240;-63
2022/03/01 14:16:25;;;;;;;7.30;5.63;;;;;;;;;;5025928;28;20217;-62
2022/03/01 14:18:58;;;;;;;6.43;5.03;;;;;;;;;;5026549;28;20317;-64
2022/03/01 14:21:26;;;;;;;6.90;5.80;;;;;;;;;;5023483;28;20214;-63
2022/03/01 14:23:54;;;;;;;6.33;5.40;;;;;;;;;;5038041;28;20213;-63
2022/03/01 14:26:21;;;;;;;6.97;5.60;;;;;;;;;;5035668;28;20229;-62
2022/03/01 14:28:55;;;;;;;6.60;5.27;;;;;;;;;;5031718;28;20218;-64
2022/03/01 14:31:23;;;;;;;8.30;5.73;;;;;;;;;;5039528;28;20214;-64
2022/03/01 14:33:51;;;;;;;10.10;5.87;;;;;;;;;;5028651;28;20209;-63
2022/03/01 14:36:20;;;;;;;6.13;5.10;;;;;;;;;;5040552;28;20607;-64
2022/03/01 14:38:48;;;;;;;7.30;5.90;;;;;;;;;;5033353;28;20225;-63
2022/03/01 14:41:19;;;;;;;9.07;6.80;;;;;;;;;;5024340;28;20813;-63